Roanoke Regional Woodrum Field
KROA : now visible

Airfield :











YOU CAN JOIN US ON...

 
LOGIN :

Register | Disclaimer

   EN    FR    IT 

 









Legend :    VFR   Marginal VFR   IFR   Intensive IFR   Very Intensive IFR
Visi :
Ceiling :
>= 8 km
>= 3000ft
5 to 8 km
1000 to 3000 ft
1500m to 5 km
500 to 1000 ft
800 to 1500m
200 to 500 ft
< 800m
< 200 ft
Symbols :   Thunderstorms  Fog  Heavy snow  Heavy precipitations  Wind > 20 kt






- Airport Elevation : 1175 ft
- IATA code : ROA


KROA - Roanoke Regional Woodrum Field

CURRENT METAR :
  • 191554Z VRB03KT 10SM FEW040 BKN110 26/19 A3014 RMK AO2 SLP196 T02610189

EXPIRED METARs :
  • 191454Z VRB04KT 10SM FEW038 SCT100 24/19 A3014 RMK AO2 SLP196 T02390189 53005
  • 191354Z VRB03KT 10SM SCT120 23/18 A3014 RMK AO2 SLP195 T02280183 $

TAF KROA
Valid from the 19 at 12:00 until the 20 at 12:00 UTC


191120Z 1912/2012 VRB03KT P6SM SCT040 OVC090
TEMPO 1912/1914 -RA
FM191400 14004KT P6SM BKN040 OVC090
FM191800 13006KT P6SM BKN050 OVC100
FM200100 13004KT P6SM SCT060 OVC150
KZDC FIR / North America



MET'MAP, your aeronautical weather chart ! - Copyright ORBIFLY December 2007 - Disclaimer

ORBIFLY MET'MAP TEAM :

Programming & Development : Alexandra Zaïnal
Original concept : Baudouin d'Aumeries
Technical & hardware support : Manuel Goepfert
Assistance : Marc-Olivier Méhu




SOURCES & CREDITS :

   NOAA       Earth
Advisory